Flight Track Log - Related Links

Times and Time Zones

All times are in EDT time to prevent confusion due to time zone crossing. See the N913FD flight status page for this flight to view local times or setup timezone preferences in your user account.

Time Position Orientation Groundspeed Altitude Reporting Facility
EDT Latitude Longitude Course Direction KTS MPH feet Rate Location/Type
Fri 01:45:46 PM 35.0333 -89.9667 248° West 148 170 1,100  Level KMEM
Fri 01:46:27 PM 35.0167 -90.0167 248° West 194 223 2,900 3,149 Climbing KMEM
Fri 01:47:27 PM 35.0167 -90.0833 270° West 233 268 6,400 2,050 Climbing KMEM
Fri 01:48:27 PM 35.0167 -90.1667 270° West 246 283 7,000 1,750 Climbing KMEM
Fri 01:49:27 PM 35.0333 -90.2500 284° West 251 289 9,900 3,300 Climbing KMEM
Fri 01:50:27 PM 35.1000 -90.2500 360° North 300 345 13,600 3,101 Climbing KMEM
Fri 01:50:56 PM 35.1428 -90.2122 36° Northeast 342 394 14,500 1,618 Climbing Memphis Center
Fri 01:51:56 PM 35.2094 -90.1208 48° Northeast 524 603 16,000 1,700 Climbing Memphis Center
Fri 01:52:56 PM 35.2886 -90.0136 48° Northeast 447 514 17,900 2,300 Climbing Memphis Center
Fri 01:53:56 PM 35.3633 -89.9142 47° Northeast 432 497 20,600 2,500 Climbing Memphis Center
Fri 01:54:56 PM 35.4483 -89.7964 48° Northeast 446 513 22,900 2,350 Climbing Memphis Center
Fri 01:55:56 PM 35.5394 -89.6733 48° Northeast 466 536 25,300 2,200 Climbing Memphis Center
Fri 01:56:56 PM 35.6347 -89.5472 47° Northeast 488 562 27,300 1,800 Climbing Memphis Center
Fri 01:57:56 PM 35.7528 -89.4336 38° Northeast 493 567 28,900 2,000 Climbing Memphis Center
Fri 01:58:56 PM 35.8811 -89.3400 31° Northeast 504 580 31,300 1,310 Climbing Memphis Center
Fri 02:05:02 PM 36.6520 -88.7600 31° Northeast 532 612 38,200 1,138 Climbing FlightAware ADS-B
Fri 02:05:42 PM 36.7360 -88.6960 31° Northeast 534 615 39,000 565 Climbing FlightAware ADS-B
Fri 02:06:27 PM 36.8280 -88.6240 32° Northeast 536 617 39,000  Level FlightAware ADS-B
Fri 02:07:07 PM 36.9160 -88.5560 32° Northeast 535 616 39,000  Level FlightAware ADS-B
Fri 02:08:02 PM 37.0270 -88.4710 31° Northeast 538 619 39,000  Level FlightAware ADS-B
Fri 02:08:47 PM 37.1180 -88.4030 31° Northeast 538 619 39,000  Level FlightAware ADS-B
Fri 02:09:27 PM 37.2120 -88.3270 33° Northeast 540 621 39,000  Level FlightAware ADS-B
Fri 02:10:07 PM 37.3000 -88.2590 32° Northeast 541 623 39,000  Level FlightAware ADS-B
Fri 02:10:52 PM 37.3960 -88.1830 32° Northeast 540 621 39,000  Level FlightAware ADS-B
Fri 02:11:32 PM 37.4790 -88.1180 32° Northeast 539 620 39,000  Level FlightAware ADS-B
Fri 02:12:12 PM 37.5660 -88.0500 32° Northeast 535 616 39,000  Level FlightAware ADS-B
Fri 02:12:57 PM 37.6580 -87.9770 32° Northeast 531 611 39,000  Level FlightAware ADS-B
Fri 02:13:37 PM 37.7420 -87.9110 32° Northeast 529 609 39,000  Level FlightAware ADS-B
Fri 02:14:22 PM 37.8330 -87.8390 32° Northeast 526 605 39,000  Level FlightAware ADS-B
Fri 02:15:02 PM 37.9160 -87.7660 35° Northeast 529 609 39,000  Level FlightAware ADS-B
Fri 02:15:47 PM 37.9910 -87.6660 46° Northeast 533 613 39,000  Level FlightAware ADS-B
Fri 02:16:27 PM 38.0520 -87.5700 51° Northeast 531 611 39,000  Level FlightAware ADS-B
Fri 02:17:07 PM 38.1150 -87.4730 50° Northeast 529 609 39,000  Level FlightAware ADS-B
Fri 02:17:52 PM 38.1850 -87.3610 51° Northeast 527 606 39,000  Level FlightAware ADS-B
Fri 02:18:32 PM 38.2460 -87.2650 51° Northeast 526 605 39,000  Level FlightAware ADS-B
Fri 02:19:12 PM 38.3040 -87.1730 51° Northeast 526 605 39,000  Level FlightAware ADS-B
Fri 02:19:57 PM 38.3750 -87.0590 52° Northeast 527 606 39,000  Level FlightAware ADS-B
Fri 02:20:37 PM 38.4340 -86.9640 52° Northeast 527 606 39,000  Level FlightAware ADS-B
Fri 02:21:22 PM 38.5020 -86.8580 51° Northeast 526 605 39,000  Level FlightAware ADS-B
Fri 02:21:47 PM 38.5410 -86.7940 52° Northeast 525 604 39,000  Level FlightAware ADS-B
Fri 02:22:27 PM 38.5980 -86.7020 52° Northeast 525 604 39,000  Level FlightAware ADS-B
Fri 02:23:12 PM 38.6680 -86.5900 51° Northeast 524 603 39,000  Level FlightAware ADS-B
Fri 02:23:52 PM 38.7280 -86.4930 52° Northeast 526 605 39,000  Level FlightAware ADS-B
Fri 02:24:32 PM 38.7880 -86.3950 52° Northeast 527 606 39,000  Level FlightAware ADS-B
Fri 02:25:17 PM 38.8560 -86.2840 52° Northeast 529 609 39,000  Level FlightAware ADS-B
Fri 02:25:57 PM 38.9140 -86.1900 52° Northeast 530 610 39,000  Level FlightAware ADS-B
Fri 02:26:42 PM 38.9860 -86.0710 52° Northeast 530 610 39,000  Level FlightAware ADS-B
Fri 02:27:22 PM 39.0470 -85.9710 52° Northeast 530 610 39,000  Level FlightAware ADS-B
Fri 02:28:07 PM 39.1140 -85.8590 52° Northeast 530 610 39,000  Level FlightAware ADS-B
Fri 02:28:47 PM 39.1720 -85.7640 52° Northeast 529 609 39,000  Level FlightAware ADS-B
Fri 02:29:27 PM 39.2310 -85.6650 52° Northeast 530 610 39,000  Level FlightAware ADS-B
Fri 02:30:07 PM 39.2900 -85.5670 52° Northeast 530 610 39,000  Level FlightAware ADS-B
Fri 02:30:52 PM 39.3530 -85.4630 52° Northeast 530 610 39,000  Level FlightAware ADS-B
Fri 02:31:32 PM 39.4050 -85.3780 52° Northeast 530 610 39,000  Level FlightAware ADS-B
Fri 02:32:12 PM 39.4560 -85.2930 52° Northeast 530 610 39,000  Level FlightAware ADS-B
Fri 02:33:02 PM 39.5730 -85.1360 46° Northeast 532 612 39,000  Level FlightAware ADS-B
Fri 02:33:32 PM 39.6210 -85.0630 50° Northeast 532 612 39,000  Level FlightAware ADS-B
Fri 02:34:12 PM 39.6810 -84.9740 49° Northeast 533 613 39,000  Level FlightAware ADS-B
Fri 02:35:07 PM 39.7740 -84.8350 49° Northeast 534 615 39,000  Level FlightAware ADS-B
Fri 02:35:57 PM 39.8480 -84.7210 50° Northeast 534 615 39,000  Level FlightAware ADS-B
Fri 02:36:47 PM 39.9340 -84.5880 50° Northeast 534 615 39,000  Level FlightAware ADS-B
Fri 02:37:27 PM 39.9940 -84.4970 49° Northeast 534 615 39,000  Level FlightAware ADS-B
Fri 02:38:12 PM 40.0730 -84.3770 49° Northeast 535 616 39,000  Level FlightAware ADS-B
Fri 02:38:52 PM 40.1310 -84.2880 50° Northeast 535 616 39,000  Level FlightAware ADS-B
Fri 02:39:32 PM 40.1950 -84.1870 50° Northeast 535 616 39,000  Level FlightAware ADS-B
Fri 02:40:17 PM 40.2680 -84.0750 49° Northeast 536 617 39,000  Level FlightAware ADS-B
Fri 02:40:57 PM 40.3330 -83.9690 51° Northeast 538 619 39,000  Level FlightAware ADS-B
Fri 02:41:42 PM 40.4020 -83.8490 53° Northeast 539 620 39,000  Level FlightAware ADS-B
Fri 02:42:22 PM 40.4620 -83.7450 53° Northeast 538 619 39,000  Level FlightAware ADS-B
Fri 02:43:02 PM 40.5210 -83.6430 53° Northeast 539 620 39,000  Level FlightAware ADS-B
Fri 02:43:42 PM 40.5820 -83.5390 52° Northeast 539 620 39,000  Level FlightAware ADS-B
Fri 02:44:27 PM 40.6470 -83.4200 54° Northeast 542 624 39,000  Level FlightAware ADS-B
Fri 02:45:12 PM 40.7020 -83.2900 61° Northeast 546 628 39,000  Level FlightAware ADS-B
Fri 02:45:52 PM 40.7420 -83.1640 67° East 547 629 39,000  Level FlightAware ADS-B
Fri 02:46:32 PM 40.7790 -83.0430 68° East 547 629 39,000  Level FlightAware ADS-B
Fri 02:47:17 PM 40.8200 -82.9030 69° East 547 629 39,000  Level FlightAware ADS-B
Fri 02:47:57 PM 40.8540 -82.7880 69° East 546 628 39,000  Level FlightAware ADS-B
Fri 02:48:42 PM 40.8970 -82.6390 69° East 546 628 39,000  Level FlightAware ADS-B
Fri 02:49:22 PM 40.9330 -82.5140 69° East 547 629 39,000  Level FlightAware ADS-B
Fri 02:50:02 PM 40.9700 -82.3860 69° East 547 629 39,000  Level FlightAware ADS-B
Fri 02:50:47 PM 41.0120 -82.2490 68° East 546 628 39,000  Level FlightAware ADS-B
Fri 02:51:27 PM 41.0500 -82.1250 68° East 547 629 39,000  Level FlightAware ADS-B
Fri 02:52:12 PM 41.0910 -81.9850 69° East 546 628 39,000  Level FlightAware ADS-B
Fri 02:52:47 PM 41.1240 -81.8770 68° East 545 627 39,000  Level FlightAware ADS-B
Fri 02:53:32 PM 41.1650 -81.7400 68° East 544 626 39,000  Level FlightAware ADS-B
Fri 02:54:12 PM 41.2020 -81.6130 69° East 544 626 39,000  Level FlightAware ADS-B
Fri 02:54:57 PM 41.2430 -81.4730 69° East 541 623 39,000  Level FlightAware ADS-B
Fri 02:55:42 PM 41.2830 -81.3370 69° East 541 623 39,000  Level FlightAware ADS-B
Fri 02:56:22 PM 41.3220 -81.2070 68° East 541 623 39,000  Level FlightAware ADS-B
Fri 02:56:57 PM 41.3520 -81.1010 69° East 540 621 39,000  Level FlightAware ADS-B
Fri 02:57:47 PM 41.3970 -80.9460 69° East 540 621 39,000  Level FlightAware ADS-B
Fri 02:58:27 PM 41.4320 -80.8220 69° East 541 623 39,000  Level FlightAware ADS-B
Fri 02:59:12 PM 41.4720 -80.6850 69° East 540 621 39,000  Level FlightAware ADS-B
Fri 02:59:52 PM 41.5060 -80.5640 69° East 541 623 39,000  Level FlightAware ADS-B
Fri 03:00:32 PM 41.5420 -80.4350 70° East 543 625 39,000  Level FlightAware ADS-B
Fri 03:01:17 PM 41.5830 -80.2910 69° East 544 626 39,000  Level FlightAware ADS-B
Fri 03:01:57 PM 41.6160 -80.1720 70° East 543 625 39,000  Level FlightAware ADS-B
Fri 03:02:37 PM 41.6530 -80.0390 70° East 543 625 39,000  Level FlightAware ADS-B
Fri 03:03:22 PM 41.6920 -79.8980 70° East 543 625 39,000  Level FlightAware ADS-B
Fri 03:04:02 PM 41.7270 -79.7680 70° East 544 626 39,000  Level FlightAware ADS-B
Fri 03:04:22 PM 41.7419 -79.7178 70° East 532 612 39,000  Level Cleveland Center
Fri 03:05:22 PM 41.7886 -79.5472 70° East 532 612 39,000  Level Cleveland Center
Fri 03:06:22 PM 41.8408 -79.3539 70° East 532 612 39,000  Level Cleveland Center
Fri 03:07:22 PM 41.8928 -79.1633 70° East 532 612 39,000  Level Cleveland Center
Fri 03:08:22 PM 41.9425 -78.9725 71° East 532 612 39,000  Level Cleveland Center
Fri 03:09:22 PM 41.9939 -78.7811 70° East 532 612 39,000  Level Cleveland Center
Fri 03:10:22 PM 42.0447 -78.5894 70° East 532 612 39,000  Level Cleveland Center
Fri 03:11:22 PM 42.0933 -78.3950 71° East 537 618 39,000  Level Cleveland Center
Fri 03:12:22 PM 42.1439 -78.2056 70° East 537 618 39,000  Level Cleveland Center
Fri 03:13:22 PM 42.1958 -78.0103 70° East 542 624 39,000  Level Cleveland Center
Fri 03:14:22 PM 42.2417 -77.8233 72° East 542 624 39,000  Level Cleveland Center
Fri 03:15:22 PM 42.2889 -77.6303 72° East 537 618 39,000  Level Cleveland Center
Fri 03:16:22 PM 42.3439 -77.4225 70° East 532 612 39,000  Level Cleveland Center
Fri 03:17:22 PM 42.3886 -77.2319 72° East 532 612 39,000  Level Cleveland Center
Fri 03:18:22 PM 42.4350 -77.0411 72° East 532 612 39,000  Level Cleveland Center
Fri 03:19:27 PM 42.4586 -76.8450 81° East 554 638 39,000  Level Boston Center
Fri 03:20:39 PM 42.4831 -76.6411 81° East 554 638 39,000  Level Boston Center
Fri 03:21:39 PM 42.5064 -76.4003 82° East 549 632 39,000  Level Boston Center
Fri 03:22:39 PM 42.5428 -76.1856 77° East 537 618 39,000  Level Boston Center
Fri 03:23:39 PM 42.5989 -76.0000 68° East 517 595 39,000  Level Boston Center
Fri 03:24:39 PM 42.6625 -75.8258 64° Northeast 517 595 39,000  Level Boston Center
Fri 03:25:39 PM 42.7242 -75.6481 65° Northeast 517 595 39,000  Level Boston Center
Fri 03:26:39 PM 42.7875 -75.4675 64° Northeast 517 595 39,000  Level Boston Center
Fri 03:32:32 PM 43.1340 -74.4690 64° Northeast 500 575 39,000  Level FlightAware ADS-B
Fri 03:33:12 PM 43.1770 -74.3390 66° East 498 573 39,000  Level FlightAware ADS-B
Fri 03:34:07 PM 43.2320 -74.1780 65° Northeast 500 575 39,000  Level FlightAware ADS-B
Fri 03:34:47 PM 43.2710 -74.0600 66° East 501 577 39,000  Level FlightAware ADS-B
Fri 03:35:32 PM 43.3160 -73.9270 65° Northeast 503 579 39,000  Level FlightAware ADS-B
Fri 03:36:12 PM 43.3540 -73.8100 66° East 505 581 39,000  Level FlightAware ADS-B
Fri 03:36:57 PM 43.3960 -73.6850 65° Northeast 505 581 39,000  Level FlightAware ADS-B
Fri 03:37:32 PM 43.4320 -73.5760 66° East 506 582 39,000  Level FlightAware ADS-B
Fri 03:38:22 PM 43.4780 -73.4320 66° East 508 585 39,000  Level FlightAware ADS-B
Fri 03:39:02 PM 43.5170 -73.3140 65° Northeast 508 585 39,000  Level FlightAware ADS-B
Fri 03:39:37 PM 43.5520 -73.2050 66° East 507 583 39,000  Level FlightAware ADS-B
Fri 03:40:27 PM 43.5990 -73.0600 66° East 507 583 39,000  Level FlightAware ADS-B
Fri 03:41:12 PM 43.6410 -72.9300 66° East 507 583 39,000  Level FlightAware ADS-B
Fri 03:41:52 PM 43.6790 -72.8120 66° East 506 582 39,000  Level FlightAware ADS-B
Fri 03:42:32 PM 43.7160 -72.6930 67° East 506 582 39,000  Level FlightAware ADS-B
Fri 03:43:17 PM 43.7600 -72.5540 66° East 504 580 39,000  Level FlightAware ADS-B
Fri 03:43:57 PM 43.7960 -72.4390 67° East 504 580 39,000  Level FlightAware ADS-B
Fri 03:44:37 PM 43.8340 -72.3210 66° East 504 580 39,000  Level FlightAware ADS-B
Fri 03:45:22 PM 43.8740 -72.1910 67° East 503 579 39,000  Level FlightAware ADS-B
Fri 03:46:07 PM 43.9160 -72.0550 67° East 500 575 39,000  Level FlightAware ADS-B
Fri 03:46:47 PM 43.9540 -71.9350 66° East 500 575 39,000  Level FlightAware ADS-B
Fri 03:47:27 PM 43.9890 -71.8200 67° East 497 572 39,000  Level FlightAware ADS-B
Fri 03:48:12 PM 44.0280 -71.6910 67° East 496 571 39,000  Level FlightAware ADS-B
Fri 03:48:52 PM 44.0640 -71.5740 67° East 494 568 39,000  Level FlightAware ADS-B
Fri 03:49:32 PM 44.1000 -71.4570 67° East 492 566 39,000  Level FlightAware ADS-B
Fri 03:50:17 PM 44.1400 -71.3230 67° East 490 564 39,000 -282 Level FlightAware ADS-B
Fri 03:50:57 PM 44.1760 -71.2040 67° East 488 562 38,600 -1,624 Descending FlightAware ADS-B
Fri 03:51:42 PM 44.2140 -71.0760 67° East 492 566 36,700 -2,682 Descending FlightAware ADS-B
Fri 03:52:22 PM 44.2480 -70.9610 68° East 495 570 34,800 -3,075 Descending FlightAware ADS-B
Fri 03:53:02 PM 44.2820 -70.8480 67° East 501 577 32,600 -3,600 Descending FlightAware ADS-B
Fri 03:53:47 PM 44.3250 -70.7010 68° East 506 582 29,700 -3,882 Descending FlightAware ADS-B
Fri 03:54:27 PM 44.3590 -70.5860 67° East 505 581 27,100 -3,600 Descending FlightAware ADS-B
Fri 03:55:12 PM 44.3980 -70.4490 68° East 489 563 24,600 -3,158 Descending FlightAware ADS-B
Fri 03:56:02 PM 44.4390 -70.3110 67° East 471 542 22,100 -1,579 Descending FlightAware ADS-B
Fri 03:56:47 PM 44.4740 -70.1970 67° East 471 542 22,100  Level FlightAware ADS-B
Fri 03:57:27 PM 44.5020 -70.1010 68° East 471 542 22,100  Level FlightAware ADS-B
Fri 03:58:07 PM 44.5310 -70.0050 67° East 471 542 22,100  Level FlightAware ADS-B
Fri 03:58:47 PM 44.5600 -69.9100 67° East 471 542 22,100  Level FlightAware ADS-B
Fri 03:59:37 PM 44.5960 -69.7900 67° East 471 542 22,100 -5,371 Level FlightAware ADS-B
Fri 04:00:51 PM 44.6325 -69.5986 67° East 377 434 11,000 -5,418 Descending Boston Center
Fri 04:01:51 PM 44.6861 -69.4881 56° Northeast 362 417 10,000 -1,000 Descending Boston Center
Fri 04:02:51 PM 44.7317 -69.3981 55° Northeast 320 368 9,000 -1,109 Descending Boston Center
Fri 04:08:42 PM 44.8960 -68.9560 55° Northeast 177 204 2,400 -1,057 Descending FlightAware ADS-B
Fri 04:09:17 PM 44.8770 -68.9310 137° Southeast 171 197 2,200 -840 Descending FlightAware ADS-B
Fri 04:10:22 PM 44.8460 -68.8840 133° Southeast 127 146 1,000 -957 Descending FlightAware ADS-B
Fri 04:10:51 PM 44.8353 -68.8714 133° Southeast 148 170 700 -539 Descending Boston Center
Fri 04:11:51 PM 44.8158 -68.8433 134° Southeast 135 155 200 5,150 Descending Boston Center
Fri 04:12:51 PM 44.7853 -68.8044 138° Southeast 135 155 11,000 10,800 Climbing Boston Center
Fri 04:14:00 PM 44.8074 -68.8281 323° Northwest  Level Estimated

Login

Don't have an account? Register now (free) for customized features, flight alerts, and more!